Time;durP1;ratioP1;P1;durP2;ratioP2;P2;SDS_P1;SDS_P2;PMS_P1;PMS_P2;Temp;Humidity;BMP_temperature;BMP_pressure;BME280_temperature;BME280_humidity;BME280_pressure;Samples;Min_cycle;Max_cycle;Signal;HPM_P1;HPM_P2
2022/02/27 00:00:48;;;;;;;13.63;5.10;;;;;;;;;;4880946;29;20453;-83
2022/02/27 00:03:14;;;;;;;19.92;5.45;;;;;;;;;;4881166;29;20041;-84
2022/02/27 00:05:40;;;;;;;15.93;5.20;;;;;;;;;;4896734;29;20099;-84
2022/02/27 00:08:06;;;;;;;15.45;4.55;;;;;;;;;;4865486;29;20080;-82
2022/02/27 00:10:32;;;;;;;15.07;5.03;;;;;;;;;;4865142;29;20057;-82
2022/02/27 00:12:58;;;;;;;17.63;5.82;;;;;;;;;;4880991;29;20112;-82
2022/02/27 00:15:25;;;;;;;18.10;5.88;;;;;;;;;;4865444;29;20056;-81
2022/02/27 00:17:51;;;;;;;20.73;5.35;;;;;;;;;;4880625;29;20076;-82
2022/02/27 00:20:17;;;;;;;16.52;4.97;;;;;;;;;;4880484;29;20048;-82
2022/02/27 00:22:43;;;;;;;19.73;4.90;;;;;;;;;;4880692;29;20135;-83
2022/02/27 00:25:10;;;;;;;18.23;5.07;;;;;;;;;;4880165;29;20048;-82
2022/02/27 00:27:36;;;;;;;18.88;4.95;;;;;;;;;;4880185;29;20136;-83
2022/02/27 00:30:03;;;;;;;18.80;5.35;;;;;;;;;;4880769;29;20059;-83
2022/02/27 00:32:29;;;;;;;19.27;5.15;;;;;;;;;;4865156;29;20056;-83
2022/02/27 00:34:55;;;;;;;23.92;5.10;;;;;;;;;;4880215;29;20166;-83
2022/02/27 00:37:21;;;;;;;17.25;4.88;;;;;;;;;;4880886;29;20136;-83
2022/02/27 00:39:47;;;;;;;17.33;5.68;;;;;;;;;;4864985;29;20053;-82
2022/02/27 00:42:13;;;;;;;18.30;5.28;;;;;;;;;;4880891;29;20051;-83
2022/02/27 00:44:40;;;;;;;15.05;5.40;;;;;;;;;;4896674;29;20060;-84
2022/02/27 00:47:07;;;;;;;21.60;5.22;;;;;;;;;;4880671;29;20178;-82
2022/02/27 00:49:33;;;;;;;15.75;5.68;;;;;;;;;;4880030;29;20079;-83
2022/02/27 00:51:59;;;;;;;20.42;5.97;;;;;;;;;;4882547;29;20060;-82
2022/02/27 00:54:25;;;;;;;22.73;5.32;;;;;;;;;;4898868;29;20147;-82
2022/02/27 00:56:51;;;;;;;19.77;5.53;;;;;;;;;;4898611;29;20051;-82
2022/02/27 00:59:19;;;;;;;19.10;5.00;;;;;;;;;;4898279;29;20055;-80
2022/02/27 01:01:45;;;;;;;18.95;6.13;;;;;;;;;;4898261;29;20059;-83
2022/02/27 01:04:12;;;;;;;22.60;5.90;;;;;;;;;;4898554;29;20052;-83
2022/02/27 01:06:38;;;;;;;22.60;6.97;;;;;;;;;;4882651;29;20111;-82
2022/02/27 01:09:04;;;;;;;25.10;5.68;;;;;;;;;;4898461;29;20107;-81
2022/02/27 01:11:31;;;;;;;18.42;4.93;;;;;;;;;;4898151;29;20056;-83
2022/02/27 01:13:57;;;;;;;17.45;4.90;;;;;;;;;;4898299;29;20052;-83
2022/02/27 01:16:24;;;;;;;18.95;5.68;;;;;;;;;;4882915;29;20056;-82
2022/02/27 01:18:50;;;;;;;22.67;5.57;;;;;;;;;;4897955;29;20480;-82
2022/02/27 01:21:16;;;;;;;18.65;5.18;;;;;;;;;;4898558;29;20044;-83
2022/02/27 01:23:44;;;;;;;23.70;5.20;;;;;;;;;;4881937;29;20048;-79
2022/02/27 01:26:10;;;;;;;15.82;5.00;;;;;;;;;;4914459;29;20079;-83
2022/02/27 01:28:37;;;;;;;23.60;5.90;;;;;;;;;;4883004;29;20496;-78
2022/02/27 01:31:03;;;;;;;18.73;5.50;;;;;;;;;;4897854;29;20054;-82
2022/02/27 01:33:29;;;;;;;24.27;5.82;;;;;;;;;;4898067;29;20058;-83
2022/02/27 01:35:55;;;;;;;18.38;5.82;;;;;;;;;;4897688;29;20056;-83
2022/02/27 01:38:21;;;;;;;15.85;5.22;;;;;;;;;;4897450;29;20408;-81
2022/02/27 01:40:47;;;;;;;20.20;5.18;;;;;;;;;;4897743;29;20127;-82
2022/02/27 01:43:14;;;;;;;16.13;5.88;;;;;;;;;;4898180;29;20052;-83
2022/02/27 01:45:40;;;;;;;16.85;5.28;;;;;;;;;;4898022;29;20400;-76
2022/02/27 01:48:06;;;;;;;15.90;4.85;;;;;;;;;;4883051;29;20166;-83
2022/02/27 01:50:32;;;;;;;20.90;5.32;;;;;;;;;;4897827;29;20055;-82
2022/02/27 01:52:58;;;;;;;14.85;4.75;;;;;;;;;;4897425;29;20056;-83
2022/02/27 01:55:24;;;;;;;22.13;4.97;;;;;;;;;;4898338;29;20060;-83
2022/02/27 01:57:51;;;;;;;21.00;5.47;;;;;;;;;;4881967;29;20054;-82
2022/02/27 02:00:17;;;;;;;23.00;4.97;;;;;;;;;;4897860;29;20048;-82
2022/02/27 02:02:46;;;;;;;16.42;4.85;;;;;;;;;;4898099;29;20100;-82
2022/02/27 02:05:13;;;;;;;13.18;4.28;;;;;;;;;;4882700;29;20056;-83
2022/02/27 02:07:40;;;;;;;22.60;5.45;;;;;;;;;;4898760;29;20074;-83
2022/02/27 02:10:07;;;;;;;17.10;4.60;;;;;;;;;;4882586;29;20649;-82
2022/02/27 02:12:33;;;;;;;18.27;4.43;;;;;;;;;;4897627;29;20460;-83
2022/02/27 02:14:59;;;;;;;16.40;4.65;;;;;;;;;;4897868;29;20059;-81
2022/02/27 02:17:25;;;;;;;22.85;5.35;;;;;;;;;;4882220;29;20493;-82
2022/02/27 02:19:55;;;;;;;23.27;5.22;;;;;;;;;;4897517;29;20111;-83
2022/02/27 02:22:21;;;;;;;18.58;4.88;;;;;;;;;;4898298;29;20052;-83
2022/02/27 02:24:47;;;;;;;25.15;4.78;;;;;;;;;;4898111;29;20378;-83
2022/02/27 02:27:13;;;;;;;20.35;4.75;;;;;;;;;;4898418;29;20059;-83
2022/02/27 02:29:40;;;;;;;15.60;4.45;;;;;;;;;;4897725;29;20103;-82
2022/02/27 02:32:06;;;;;;;18.15;4.82;;;;;;;;;;4897756;29;20045;-83
2022/02/27 02:34:32;;;;;;;18.63;4.95;;;;;;;;;;4898477;29;20539;-83
2022/02/27 02:36:58;;;;;;;24.35;5.15;;;;;;;;;;4897551;29;20044;-81
2022/02/27 02:39:26;;;;;;;16.08;4.75;;;;;;;;;;4881558;29;20103;-82
2022/02/27 02:41:52;;;;;;;14.60;4.07;;;;;;;;;;4897349;29;20080;-83
2022/02/27 02:44:18;;;;;;;19.20;4.07;;;;;;;;;;4882740;29;20059;-83
2022/02/27 02:46:45;;;;;;;24.05;4.35;;;;;;;;;;4898209;29;20052;-77
2022/02/27 02:49:12;;;;;;;19.50;4.40;;;;;;;;;;4899136;29;20400;-82
2022/02/27 02:51:38;;;;;;;18.58;4.10;;;;;;;;;;4885231;29;20052;-82
2022/02/27 02:54:05;;;;;;;17.52;4.10;;;;;;;;;;4900479;29;20598;-83
2022/02/27 02:56:31;;;;;;;14.25;4.70;;;;;;;;;;4885517;29;20053;-80
2022/02/27 02:58:57;;;;;;;19.60;5.43;;;;;;;;;;4900467;29;20119;-83
2022/02/27 03:01:23;;;;;;;19.95;5.30;;;;;;;;;;4901304;29;20416;-84
2022/02/27 03:03:50;;;;;;;21.05;4.35;;;;;;;;;;4900892;29;20048;-83
2022/02/27 03:06:16;;;;;;;19.02;4.25;;;;;;;;;;4916660;29;20048;-81
2022/02/27 03:08:43;;;;;;;17.20;4.55;;;;;;;;;;4917682;29;20048;-82
2022/02/27 03:11:09;;;;;;;16.55;4.45;;;;;;;;;;4900760;29;20222;-79
2022/02/27 03:13:36;;;;;;;16.65;4.85;;;;;;;;;;4900966;29;20403;-83
2022/02/27 03:16:02;;;;;;;16.38;4.90;;;;;;;;;;4900640;29;20048;-82
2022/02/27 03:18:28;;;;;;;23.30;4.82;;;;;;;;;;4885192;29;20048;-80
2022/02/27 03:20:56;;;;;;;13.75;4.18;;;;;;;;;;4900165;29;20055;-82
2022/02/27 03:23:22;;;;;;;19.00;5.18;;;;;;;;;;4884788;29;20138;-84
2022/02/27 03:25:48;;;;;;;18.02;4.70;;;;;;;;;;4900844;29;20063;-83
2022/02/27 03:28:14;;;;;;;21.60;4.88;;;;;;;;;;4900390;29;20056;-84
2022/02/27 03:30:40;;;;;;;16.13;5.03;;;;;;;;;;4884933;29;20051;-83
2022/02/27 03:33:07;;;;;;;22.98;5.70;;;;;;;;;;4900159;29;20044;-83
2022/02/27 03:35:33;;;;;;;13.38;4.30;;;;;;;;;;4900184;29;20509;-83
2022/02/27 03:37:59;;;;;;;15.50;5.88;;;;;;;;;;4884723;29;20058;-84
2022/02/27 03:40:25;;;;;;;19.25;4.57;;;;;;;;;;4900470;29;20499;-78
2022/02/27 03:42:51;;;;;;;19.08;4.28;;;;;;;;;;4916436;29;20122;-77
2022/02/27 03:45:17;;;;;;;17.73;5.28;;;;;;;;;;4884340;29;20044;-83
2022/02/27 03:47:44;;;;;;;22.23;6.13;;;;;;;;;;4916284;29;20044;-82
2022/02/27 03:50:14;;;;;;;17.80;4.60;;;;;;;;;;4899688;29;20051;-83
2022/02/27 03:52:40;;;;;;;16.85;4.95;;;;;;;;;;4896957;29;20064;-84
2022/02/27 03:55:07;;;;;;;17.02;5.15;;;;;;;;;;4896635;29;20694;-83
2022/02/27 03:57:33;;;;;;;21.52;5.65;;;;;;;;;;4897140;29;20135;-83
2022/02/27 03:59:59;;;;;;;14.98;4.90;;;;;;;;;;4895679;29;20402;-83
2022/02/27 04:02:26;;;;;;;17.77;4.38;;;;;;;;;;4896803;29;20557;-84
2022/02/27 04:04:52;;;;;;;20.00;5.03;;;;;;;;;;4896940;29;20412;-80
2022/02/27 04:07:18;;;;;;;21.00;5.25;;;;;;;;;;4896132;29;20049;-84
2022/02/27 04:09:44;;;;;;;22.60;5.22;;;;;;;;;;4896957;29;20144;-82
2022/02/27 04:12:10;;;;;;;17.88;5.50;;;;;;;;;;4896609;29;20053;-83
2022/02/27 04:14:36;;;;;;;15.38;4.72;;;;;;;;;;4896518;29;20064;-83
2022/02/27 04:17:03;;;;;;;20.70;5.55;;;;;;;;;;4880644;29;20052;-83
2022/02/27 04:19:29;;;;;;;27.05;6.05;;;;;;;;;;4896318;29;20049;-83
2022/02/27 04:21:56;;;;;;;14.98;5.68;;;;;;;;;;4896391;29;20048;-81
2022/02/27 04:24:23;;;;;;;17.05;5.50;;;;;;;;;;4880804;29;20269;-82
2022/02/27 04:26:51;;;;;;;17.38;5.38;;;;;;;;;;4881672;29;20068;-83
2022/02/27 04:29:17;;;;;;;19.83;6.07;;;;;;;;;;4896322;29;20096;-83
2022/02/27 04:31:43;;;;;;;18.50;5.95;;;;;;;;;;4896814;29;20040;-83
2022/02/27 04:34:09;;;;;;;17.50;5.65;;;;;;;;;;4895657;29;20539;-83
2022/02/27 04:36:35;;;;;;;17.17;5.75;;;;;;;;;;4880722;29;20396;-84
2022/02/27 04:39:02;;;;;;;21.92;6.68;;;;;;;;;;4895899;29;20397;-84
2022/02/27 04:41:28;;;;;;;28.90;5.80;;;;;;;;;;4896220;29;20048;-82
2022/02/27 04:43:54;;;;;;;20.70;6.25;;;;;;;;;;4896233;29;20107;-83
2022/02/27 04:46:20;;;;;;;21.02;6.45;;;;;;;;;;4895622;29;20052;-82
2022/02/27 04:48:47;;;;;;;22.90;6.93;;;;;;;;;;4880279;29;20045;-82
2022/02/27 04:51:13;;;;;;;16.33;5.60;;;;;;;;;;4879963;29;20322;-83
2022/02/27 04:53:39;;;;;;;21.00;6.85;;;;;;;;;;4895140;29;20068;-83
2022/02/27 04:56:05;;;;;;;18.88;5.93;;;;;;;;;;4895856;29;20067;-83
2022/02/27 04:58:31;;;;;;;23.05;6.13;;;;;;;;;;4895472;29;20508;-83
2022/02/27 05:00:57;;;;;;;25.15;6.65;;;;;;;;;;4895882;29;20057;-83
2022/02/27 05:03:24;;;;;;;19.75;5.97;;;;;;;;;;4880676;29;20056;-84
2022/02/27 05:05:50;;;;;;;17.05;5.63;;;;;;;;;;4895905;29;20139;-83
2022/02/27 05:08:16;;;;;;;18.30;6.38;;;;;;;;;;4895497;29;20064;-82
2022/02/27 05:10:42;;;;;;;20.90;6.40;;;;;;;;;;4864702;29;20143;-82
2022/02/27 05:13:08;;;;;;;24.42;7.35;;;;;;;;;;4879811;29;20148;-83
2022/02/27 05:15:34;;;;;;;20.52;6.68;;;;;;;;;;4895782;29;20059;-82
2022/02/27 05:18:00;;;;;;;23.90;6.43;;;;;;;;;;4894966;29;20501;-83
2022/02/27 05:20:26;;;;;;;17.42;6.47;;;;;;;;;;4895087;29;20096;-82
2022/02/27 05:22:52;;;;;;;15.60;6.50;;;;;;;;;;4895464;29;20131;-82
2022/02/27 05:25:19;;;;;;;21.63;6.70;;;;;;;;;;4879881;29;20068;-82
2022/02/27 05:27:50;;;;;;;20.77;6.45;;;;;;;;;;4895123;29;20445;-81
2022/02/27 05:30:16;;;;;;;24.90;7.40;;;;;;;;;;4895145;29;20489;-82
2022/02/27 05:32:42;;;;;;;19.35;7.80;;;;;;;;;;4879541;29;20056;-82
2022/02/27 05:35:09;;;;;;;18.15;5.68;;;;;;;;;;4894429;29;20523;-83
2022/02/27 05:37:35;;;;;;;15.75;6.65;;;;;;;;;;4863852;29;20059;-83
2022/02/27 05:40:01;;;;;;;25.67;8.18;;;;;;;;;;4895008;29;20060;-83
2022/02/27 05:42:27;;;;;;;14.60;7.03;;;;;;;;;;4895238;29;20080;-83
2022/02/27 05:44:53;;;;;;;19.75;6.13;;;;;;;;;;4896076;29;20044;-82
2022/02/27 05:47:19;;;;;;;20.98;7.63;;;;;;;;;;4879210;29;20503;-82
2022/02/27 05:49:45;;;;;;;15.80;7.53;;;;;;;;;;4895144;29;20092;-81
2022/02/27 05:52:11;;;;;;;17.85;7.40;;;;;;;;;;4897091;29;20056;-83
2022/02/27 05:54:38;;;;;;;22.50;6.95;;;;;;;;;;4882593;29;20139;-81
2022/02/27 05:57:04;;;;;;;19.38;6.63;;;;;;;;;;4898079;29;20052;-82
2022/02/27 05:59:30;;;;;;;20.75;7.00;;;;;;;;;;4898061;29;20555;-79
2022/02/27 06:01:56;;;;;;;23.33;8.00;;;;;;;;;;4882680;29;20365;-83
2022/02/27 06:04:22;;;;;;;23.02;7.07;;;;;;;;;;4882033;29;20377;-81
2022/02/27 06:06:48;;;;;;;28.77;7.32;;;;;;;;;;4898373;29;20048;-82
2022/02/27 06:09:15;;;;;;;17.98;7.18;;;;;;;;;;4898052;29;20203;-81
2022/02/27 06:11:41;;;;;;;18.88;7.20;;;;;;;;;;4882685;29;20056;-81
2022/02/27 06:14:07;;;;;;;23.35;8.13;;;;;;;;;;4897768;29;20056;-80
2022/02/27 06:16:33;;;;;;;20.58;7.32;;;;;;;;;;4897621;29;20056;-81
2022/02/27 06:18:59;;;;;;;21.10;7.85;;;;;;;;;;4897891;29;20103;-82
2022/02/27 06:21:26;;;;;;;18.98;8.75;;;;;;;;;;4913938;29;20355;-82
2022/02/27 06:23:52;;;;;;;17.35;7.82;;;;;;;;;;4899402;29;20138;-82
2022/02/27 06:26:18;;;;;;;25.25;7.03;;;;;;;;;;4901464;29;20056;-82
2022/02/27 06:28:45;;;;;;;27.02;7.10;;;;;;;;;;4918848;29;20044;-82
2022/02/27 06:31:11;;;;;;;25.45;7.70;;;;;;;;;;4901507;29;20052;-82
2022/02/27 06:33:37;;;;;;;25.73;8.45;;;;;;;;;;4901579;29;20051;-82
2022/02/27 06:36:04;;;;;;;21.90;8.65;;;;;;;;;;4901336;29;20187;-82
2022/02/27 06:38:30;;;;;;;23.20;8.60;;;;;;;;;;4900662;29;20048;-82
2022/02/27 06:40:56;;;;;;;18.17;8.00;;;;;;;;;;4901494;29;20044;-83
2022/02/27 06:43:22;;;;;;;20.73;8.52;;;;;;;;;;4900948;29;20062;-82
2022/02/27 06:45:48;;;;;;;35.60;8.45;;;;;;;;;;4901253;29;20119;-82
2022/02/27 06:48:14;;;;;;;18.33;8.00;;;;;;;;;;4900820;29;20079;-82
2022/02/27 06:50:40;;;;;;;24.25;8.25;;;;;;;;;;4900946;29;20048;-81
2022/02/27 06:53:06;;;;;;;26.55;8.52;;;;;;;;;;4900881;29;20150;-82
2022/02/27 06:55:33;;;;;;;24.88;9.07;;;;;;;;;;4900573;29;20147;-82
2022/02/27 06:57:59;;;;;;;30.77;9.00;;;;;;;;;;4900774;29;20440;-81
2022/02/27 07:00:25;;;;;;;23.42;9.02;;;;;;;;;;4900275;29;20079;-79
2022/02/27 07:02:51;;;;;;;20.27;8.27;;;;;;;;;;4900925;29;20103;-83
2022/02/27 07:05:17;;;;;;;22.50;8.63;;;;;;;;;;4900352;29;20139;-84
2022/02/27 07:07:43;;;;;;;19.88;8.13;;;;;;;;;;4901033;29;20047;-82
2022/02/27 07:10:10;;;;;;;19.98;8.60;;;;;;;;;;4900572;29;20087;-81
2022/02/27 07:12:37;;;;;;;22.90;8.43;;;;;;;;;;4900362;29;20512;-82
2022/02/27 07:15:04;;;;;;;19.77;8.75;;;;;;;;;;4900459;29;20055;-81
2022/02/27 07:17:30;;;;;;;25.23;8.45;;;;;;;;;;4900055;29;20404;-82
2022/02/27 07:19:56;;;;;;;17.45;7.72;;;;;;;;;;4884617;29;20132;-81
2022/02/27 07:22:22;;;;;;;18.80;8.25;;;;;;;;;;4900139;29;20052;-77
2022/02/27 07:24:49;;;;;;;19.40;8.68;;;;;;;;;;4900579;29;20139;-83
2022/02/27 07:27:15;;;;;;;17.30;6.95;;;;;;;;;;4900287;29;20515;-81
2022/02/27 07:29:41;;;;;;;18.75;7.53;;;;;;;;;;4900431;29;20563;-85
2022/02/27 07:32:11;;;;;;;21.08;6.82;;;;;;;;;;4883716;29;20254;-83
2022/02/27 07:34:37;;;;;;;21.13;7.90;;;;;;;;;;4882820;29;20056;-85
2022/02/27 07:37:03;;;;;;;19.92;6.95;;;;;;;;;;4898810;29;20195;-86
2022/02/27 07:39:29;;;;;;;21.60;7.68;;;;;;;;;;4899784;29;20135;-86
2022/02/27 07:41:55;;;;;;;22.15;7.07;;;;;;;;;;4899281;29;20351;-82
2022/02/27 07:44:22;;;;;;;18.60;7.15;;;;;;;;;;4883846;29;20056;-86
2022/02/27 07:46:48;;;;;;;16.38;7.10;;;;;;;;;;4900090;29;20103;-88
2022/02/27 07:49:14;;;;;;;20.75;7.00;;;;;;;;;;4898078;29;20155;-79
2022/02/27 07:51:41;;;;;;;15.23;7.00;;;;;;;;;;4900131;29;20070;-90
2022/02/27 07:54:08;;;;;;;16.27;6.30;;;;;;;;;;4900914;29;20102;-88
2022/02/27 07:56:37;;;;;;;14.95;6.65;;;;;;;;;;4900027;29;20136;-86
2022/02/27 07:59:03;;;;;;;16.00;6.47;;;;;;;;;;4899860;29;20044;-89
2022/02/27 08:01:29;;;;;;;21.88;6.95;;;;;;;;;;4898683;29;20048;-82
2022/02/27 08:03:58;;;;;;;20.05;6.82;;;;;;;;;;4899507;29;20460;-80
2022/02/27 08:06:24;;;;;;;18.80;6.97;;;;;;;;;;4898723;29;20377;-82
2022/02/27 08:08:50;;;;;;;18.83;6.90;;;;;;;;;;4883514;29;20061;-82
2022/02/27 08:11:17;;;;;;;16.30;6.03;;;;;;;;;;4915290;29;20488;-78
2022/02/27 08:13:43;;;;;;;19.52;6.32;;;;;;;;;;4900173;29;20051;-83
2022/02/27 08:16:09;;;;;;;11.32;5.55;;;;;;;;;;4883465;29;20052;-83
2022/02/27 08:18:35;;;;;;;;;;;;;;;;;;4898657;29;20052;-84
2022/02/27 08:21:01;;;;;;;14.02;5.28;;;;;;;;;;4899431;29;19923;-83
2022/02/27 08:23:27;;;;;;;;;;;;;;;;;;4899134;29;20083;-78
2022/02/27 08:25:54;;;;;;;16.33;6.38;;;;;;;;;;4898969;29;20017;-83
2022/02/27 08:28:21;;;;;;;17.60;6.15;;;;;;;;;;4915928;29;20128;-77
2022/02/27 08:30:47;;;;;;;13.02;5.35;;;;;;;;;;4899455;29;20040;-83
2022/02/27 08:33:14;;;;;;;12.30;5.88;;;;;;;;;;4898784;29;20060;-84
2022/02/27 08:35:40;;;;;;;15.50;5.13;;;;;;;;;;4882170;29;20070;-85
2022/02/27 08:38:06;;;;;;;;;;;;;;;;;;4898651;29;20055;-85
2022/02/27 08:40:32;;;;;;;;;;;;;;;;;;4899259;29;19927;-84
2022/02/27 08:42:58;;;;;;;;;;;;;;;;;;4915267;29;19922;-83
2022/02/27 08:45:24;;;;;;;;;;;;;;;;;;4914875;29;20375;-83
2022/02/27 08:47:50;;;;;;;;;;;;;;;;;;4898408;29;19981;-82
2022/02/27 08:50:16;;;;;;;;;;;;;;;;;;4898554;29;19982;-82
2022/02/27 08:52:42;;;;;;;;;;;;;;;;;;4915137;29;20386;-81
2022/02/27 08:55:08;;;;;;;;;;;;;;;;;;4898443;29;19927;-83
2022/02/27 08:57:34;;;;;;;;;;;;;;;;;;4915294;29;20263;-82
2022/02/27 09:00:00;;;;;;;;;;;;;;;;;;4898281;29;20389;-83
2022/02/27 09:02:27;;;;;;;;;;;;;;;;;;4898409;29;19923;-82
2022/02/27 09:04:53;;;;;;;;;;;;;;;;;;4898072;29;20268;-83
2022/02/27 09:07:19;;;;;;;;;;;;;;;;;;4898159;29;20117;-82
2022/02/27 09:09:45;;;;;;;;;;;;;;;;;;4897946;29;20232;-81
2022/02/27 09:12:11;;;;;;;;;;;;;;;;;;4914858;29;20135;-82
2022/02/27 09:14:37;;;;;;;;;;;;;;;;;;4898634;29;19930;-77
2022/02/27 09:17:03;;;;;;;;;;;;;;;;;;4898622;29;19930;-82
2022/02/27 09:19:29;;;;;;;12.95;5.28;;;;;;;;;;4897315;29;19923;-83
2022/02/27 09:21:55;;;;;;;11.70;5.20;;;;;;;;;;4897285;29;20063;-77
2022/02/27 09:24:21;;;;;;;15.45;6.25;;;;;;;;;;4897514;29;20160;-80
2022/02/27 09:26:47;;;;;;;12.30;5.35;;;;;;;;;;4880968;29;20380;-77
2022/02/27 09:29:14;;;;;;;13.43;5.05;;;;;;;;;;4897466;29;20087;-80
2022/02/27 09:31:40;;;;;;;18.20;5.88;;;;;;;;;;4896432;29;20512;-80
2022/02/27 09:34:06;;;;;;;18.88;6.20;;;;;;;;;;4897505;29;20515;-83
2022/02/27 09:36:33;;;;;;;14.13;5.47;;;;;;;;;;4881480;29;20060;-83
2022/02/27 09:38:59;;;;;;;13.80;5.03;;;;;;;;;;4897297;29;20052;-85
2022/02/27 09:41:25;;;;;;;13.23;4.80;;;;;;;;;;4897713;29;20087;-81
2022/02/27 09:43:53;;;;;;;10.90;4.45;;;;;;;;;;4897283;29;20052;-87
2022/02/27 09:46:20;;;;;;;12.27;4.85;;;;;;;;;;4897005;29;20052;-79
2022/02/27 09:48:46;;;;;;;11.35;4.53;;;;;;;;;;4914640;29;20321;-82
2022/02/27 09:51:13;;;;;;;10.95;4.53;;;;;;;;;;4898795;29;20066;-89
2022/02/27 09:53:39;;;;;;;13.55;5.22;;;;;;;;;;4886807;29;20064;-85
2022/02/27 09:56:06;;;;;;;13.25;4.93;;;;;;;;;;4882771;29;20489;-87
2022/02/27 09:58:32;;;;;;;11.52;4.25;;;;;;;;;;4899799;29;20135;-85
2022/02/27 10:00:58;;;;;;;11.88;3.78;;;;;;;;;;4902635;29;20481;-85
2022/02/27 10:03:28;;;;;;;12.05;4.30;;;;;;;;;;4888270;29;20048;-88
2022/02/27 10:05:59;;;;;;;10.65;3.90;;;;;;;;;;4889349;29;20060;-87
2022/02/27 10:08:26;;;;;;;12.27;3.95;;;;;;;;;;4905171;29;20052;-90
2022/02/27 10:10:56;;;;;;;10.10;4.10;;;;;;;;;;4917383;29;20190;-88
2022/02/27 10:13:36;;;;;;;12.80;3.88;;;;;;;;;;4919710;29;20060;-87
2022/02/27 10:16:06;;;;;;;10.73;3.97;;;;;;;;;;4915968;29;20483;-82
2022/02/27 10:18:39;;;;;;;11.25;4.07;;;;;;;;;;4889206;29;20083;-82
2022/02/27 10:21:18;;;;;;;11.50;4.03;;;;;;;;;;4887741;29;20048;-81
2022/02/27 10:23:44;;;;;;;12.70;3.75;;;;;;;;;;4902704;29;20059;-83
2022/02/27 10:26:20;;;;;;;17.27;4.18;;;;;;;;;;4903574;29;20087;-82
2022/02/27 10:29:03;;;;;;;11.98;4.38;;;;;;;;;;4885404;29;20051;-80
2022/02/27 10:31:29;;;;;;;11.45;4.40;;;;;;;;;;4901085;29;20074;-83
2022/02/27 10:34:15;;;;;;;10.82;4.20;;;;;;;;;;4900779;29;20048;-79
2022/02/27 10:36:59;;;;;;;12.60;3.58;;;;;;;;;;4885159;29;20375;-84
2022/02/27 10:39:26;;;;;;;9.85;3.83;;;;;;;;;;4904400;29;20147;-84
2022/02/27 10:41:53;;;;;;;10.63;3.47;;;;;;;;;;4903129;29;20072;-87
2022/02/27 10:44:23;;;;;;;9.45;3.67;;;;;;;;;;4903244;29;20094;-89
2022/02/27 10:46:49;;;;;;;12.75;4.38;;;;;;;;;;4888308;29;20063;-96
2022/02/27 10:49:31;;;;;;;11.95;4.53;;;;;;;;;;4908978;29;20138;-92
2022/02/27 10:52:09;;;;;;;10.48;3.67;;;;;;;;;;4901871;29;20044;-83
2022/02/27 10:54:43;;;;;;;11.35;4.53;;;;;;;;;;4896467;29;20204;-84
2022/02/27 10:57:26;;;;;;;14.45;4.13;;;;;;;;;;4900288;29;20063;-91
2022/02/27 10:59:53;;;;;;;10.63;4.20;;;;;;;;;;4897788;29;20045;-86
2022/02/27 11:02:20;;;;;;;11.40;4.50;;;;;;;;;;4898240;29;20131;-85
2022/02/27 11:04:48;;;;;;;14.05;4.80;;;;;;;;;;4882385;29;20437;-81
2022/02/27 11:07:14;;;;;;;13.15;4.03;;;;;;;;;;4900028;29;20048;-93
2022/02/27 11:09:44;;;;;;;12.65;4.50;;;;;;;;;;4883651;29;20052;-86
2022/02/27 11:12:11;;;;;;;9.23;3.95;;;;;;;;;;4882293;29;20489;-84
2022/02/27 11:14:38;;;;;;;10.18;4.40;;;;;;;;;;4881764;29;20495;-83
2022/02/27 11:17:04;;;;;;;12.07;4.57;;;;;;;;;;4897167;29;20413;-84
2022/02/27 11:19:31;;;;;;;8.15;3.70;;;;;;;;;;4897468;29;20044;-83
2022/02/27 11:21:58;;;;;;;10.25;4.57;;;;;;;;;;4896541;29;20084;-83
2022/02/27 11:24:25;;;;;;;16.52;4.28;;;;;;;;;;4897984;29;20559;-90
2022/02/27 11:26:51;;;;;;;13.88;4.35;;;;;;;;;;4899398;29;20132;-88
2022/02/27 11:29:17;;;;;;;10.82;4.30;;;;;;;;;;4868732;29;20123;-91
2022/02/27 11:31:44;;;;;;;9.88;3.90;;;;;;;;;;4882750;29;20084;-88
2022/02/27 11:34:14;;;;;;;12.27;4.80;;;;;;;;;;4897946;29;20067;-87
2022/02/27 11:36:41;;;;;;;11.23;4.57;;;;;;;;;;4897138;29;20057;-93
2022/02/27 11:40:27;;;;;;;13.02;4.40;;;;;;;;;;4898968;29;20083;-91
2022/02/27 11:41:53;;;;;;;10.50;4.45;;;;;;;;;;4897761;29;20049;-90
2022/02/27 11:44:19;;;;;;;11.48;4.50;;;;;;;;;;4898422;29;20136;-81
2022/02/27 11:46:47;;;;;;;13.90;4.53;;;;;;;;;;4895518;29;20052;-81
2022/02/27 11:49:18;;;;;;;12.52;5.15;;;;;;;;;;4895959;29;20377;-77
2022/02/27 11:52:00;;;;;;;11.07;4.53;;;;;;;;;;4895723;29;20045;-80
2022/02/27 11:54:36;;;;;;;12.75;5.03;;;;;;;;;;4896794;29;20071;-82
2022/02/27 11:57:02;;;;;;;11.45;4.30;;;;;;;;;;4897417;29;20411;-85
2022/02/27 11:59:47;;;;;;;10.38;4.10;;;;;;;;;;4882734;29;20529;-85
2022/02/27 12:02:29;;;;;;;11.15;4.30;;;;;;;;;;4896812;29;20116;-81
2022/02/27 12:04:56;;;;;;;8.18;3.80;;;;;;;;;;4895582;29;20079;-85
2022/02/27 12:07:22;;;;;;;10.48;3.97;;;;;;;;;;4895728;29;20059;-84
2022/02/27 12:09:48;;;;;;;7.25;3.75;;;;;;;;;;4879280;29;20048;-82
2022/02/27 12:12:43;;;;;;;8.15;3.70;;;;;;;;;;4894683;29;20480;-79
2022/02/27 12:15:26;;;;;;;9.43;3.97;;;;;;;;;;4896666;29;20111;-76
2022/02/27 12:18:15;;;;;;;7.18;3.35;;;;;;;;;;4896287;29;20052;-77
2022/02/27 12:20:41;;;;;;;9.73;4.10;;;;;;;;;;4890353;29;20381;-80
2022/02/27 12:23:09;;;;;;;8.88;3.75;;;;;;;;;;4880075;29;20087;-80
2022/02/27 12:25:35;;;;;;;9.43;3.38;;;;;;;;;;4896064;29;20504;-81
2022/02/27 12:28:02;;;;;;;10.85;3.90;;;;;;;;;;4896869;29;20143;-81
2022/02/27 12:30:28;;;;;;;9.38;3.67;;;;;;;;;;4880502;29;20053;-81
2022/02/27 12:33:07;;;;;;;9.77;3.72;;;;;;;;;;4895789;29;20170;-81
2022/02/27 12:35:37;;;;;;;6.82;3.47;;;;;;;;;;4896100;29;20571;-81
2022/02/27 12:38:04;;;;;;;8.60;3.53;;;;;;;;;;4895693;29;20060;-78
2022/02/27 12:40:31;;;;;;;8.50;3.25;;;;;;;;;;4895924;29;20044;-80
2022/02/27 12:43:01;;;;;;;6.75;2.92;;;;;;;;;;4894827;29;20084;-77
2022/02/27 12:45:31;;;;;;;8.45;2.78;;;;;;;;;;4880490;29;20369;-82
2022/02/27 12:48:10;;;;;;;5.80;3.00;;;;;;;;;;4895420;29;20400;-82
2022/02/27 12:50:42;;;;;;;6.65;3.90;;;;;;;;;;4896295;29;20505;-79
2022/02/27 12:53:11;;;;;;;8.02;3.08;;;;;;;;;;4895082;29;20056;-78
2022/02/27 12:55:39;;;;;;;7.80;2.97;;;;;;;;;;4895783;29;20401;-83
2022/02/27 12:58:06;;;;;;;10.10;3.50;;;;;;;;;;4894932;29;20556;-78
2022/02/27 13:00:33;;;;;;;9.07;2.60;;;;;;;;;;4894490;29;20068;-75
2022/02/27 13:03:06;;;;;;;7.75;2.80;;;;;;;;;;4894560;29;20049;-78
2022/02/27 13:05:33;;;;;;;8.23;3.08;;;;;;;;;;4896196;29;20052;-89
2022/02/27 13:08:04;;;;;;;8.30;3.30;;;;;;;;;;4894718;29;20084;-77
2022/02/27 13:10:30;;;;;;;8.73;3.00;;;;;;;;;;4894896;29;20058;-82
2022/02/27 13:12:58;;;;;;;9.63;2.75;;;;;;;;;;4894527;29;20131;-78
2022/02/27 13:15:25;;;;;;;5.90;2.50;;;;;;;;;;4894675;29;20504;-77
2022/02/27 13:17:51;;;;;;;7.18;3.05;;;;;;;;;;4893985;29;20104;-79
2022/02/27 13:20:22;;;;;;;6.55;3.15;;;;;;;;;;4895051;29;20048;-75
2022/02/27 13:22:50;;;;;;;20.90;3.92;;;;;;;;;;4895063;29;20505;-70
2022/02/27 13:25:17;;;;;;;7.32;3.28;;;;;;;;;;4895382;29;20052;-72
2022/02/27 13:27:45;;;;;;;7.53;3.13;;;;;;;;;;4895809;29;20095;-74
2022/02/27 13:30:18;;;;;;;6.47;2.80;;;;;;;;;;4894909;29;20594;-72
2022/02/27 13:32:45;;;;;;;5.82;2.67;;;;;;;;;;4895888;29;20124;-74
2022/02/27 13:35:16;;;;;;;5.97;2.83;;;;;;;;;;4895367;29;20056;-73
2022/02/27 13:37:43;;;;;;;6.55;3.20;;;;;;;;;;4894264;29;20052;-77
2022/02/27 13:40:10;;;;;;;7.90;3.03;;;;;;;;;;4895452;29;20056;-74
2022/02/27 13:42:37;;;;;;;7.82;3.17;;;;;;;;;;4894935;29;20151;-77
2022/02/27 13:45:12;;;;;;;5.85;2.75;;;;;;;;;;4895482;29;20052;-73
2022/02/27 13:47:43;;;;;;;5.03;2.53;;;;;;;;;;4895694;29;20397;-73
2022/02/27 13:50:20;;;;;;;4.70;2.95;;;;;;;;;;4894219;29;20052;-82
2022/02/27 13:52:55;;;;;;;12.40;3.08;;;;;;;;;;4880113;29;20053;-75
2022/02/27 13:55:22;;;;;;;5.30;2.75;;;;;;;;;;4897955;29;20058;-79
2022/02/27 13:57:48;;;;;;;7.28;2.50;;;;;;;;;;4897981;29;20492;-79
2022/02/27 14:00:16;;;;;;;6.90;2.65;;;;;;;;;;4882023;29;20044;-79
2022/02/27 14:02:43;;;;;;;5.72;2.58;;;;;;;;;;4897386;29;20523;-79
2022/02/27 14:05:25;;;;;;;4.47;2.17;;;;;;;;;;4897583;29;20075;-79
2022/02/27 14:07:52;;;;;;;5.93;2.58;;;;;;;;;;4897816;29;20113;-79
2022/02/27 14:10:22;;;;;;;6.22;2.75;;;;;;;;;;4882458;29;20096;-80
2022/02/27 14:13:09;;;;;;;6.35;3.05;;;;;;;;;;4882488;29;20071;-79
2022/02/27 14:15:39;;;;;;;5.70;2.33;;;;;;;;;;4882136;29;20067;-81
2022/02/27 14:18:14;;;;;;;5.65;2.20;;;;;;;;;;4881738;29;20052;-79
2022/02/27 14:20:41;;;;;;;6.65;2.33;;;;;;;;;;4882298;29;20092;-80
2022/02/27 14:23:08;;;;;;;5.30;2.53;;;;;;;;;;4897463;29;20048;-80
2022/02/27 14:25:36;;;;;;;4.22;2.00;;;;;;;;;;4897739;29;20048;-79
2022/02/27 14:28:09;;;;;;;4.78;1.80;;;;;;;;;;4881523;29;20063;-80
2022/02/27 14:30:37;;;;;;;6.68;2.40;;;;;;;;;;4897841;29;20052;-80
2022/02/27 14:33:04;;;;;;;5.15;2.00;;;;;;;;;;4897356;29;20520;-80
2022/02/27 14:35:30;;;;;;;4.18;1.90;;;;;;;;;;4881953;29;20100;-79
2022/02/27 14:37:56;;;;;;;4.65;2.13;;;;;;;;;;4897036;29;20048;-80
2022/02/27 14:40:23;;;;;;;5.53;1.85;;;;;;;;;;4882147;29;20040;-80